sensor_id;sensor_type;location;lat;lon;timestamp;temperature;humidity
42743;DHT22;28397;44.552;-0.848;2023-05-10T00:01:05;14.70;99.90
42743;DHT22;28397;44.552;-0.848;2023-05-10T00:03:30;14.70;99.90
42743;DHT22;28397;44.552;-0.848;2023-05-10T00:05:56;14.70;99.90
42743;DHT22;28397;44.552;-0.848;2023-05-10T00:08:22;14.70;99.90
42743;DHT22;28397;44.552;-0.848;2023-05-10T00:10:48;14.70;99.90
42743;DHT22;28397;44.552;-0.848;2023-05-10T00:13:14;14.70;99.90
42743;DHT22;28397;44.552;-0.848;2023-05-10T00:15:40;14.70;99.90
42743;DHT22;28397;44.552;-0.848;2023-05-10T00:18:05;14.60;99.90
42743;DHT22;28397;44.552;-0.848;2023-05-10T00:20:31;14.60;99.90
42743;DHT22;28397;44.552;-0.848;2023-05-10T00:22:57;14.60;99.90
42743;DHT22;28397;44.552;-0.848;2023-05-10T00:25:22;14.70;99.90
42743;DHT22;28397;44.552;-0.848;2023-05-10T00:27:48;14.60;99.90
42743;DHT22;28397;44.552;-0.848;2023-05-10T00:30:15;14.70;99.90
42743;DHT22;28397;44.552;-0.848;2023-05-10T00:32:40;14.60;99.90
42743;DHT22;28397;44.552;-0.848;2023-05-10T00:35:06;14.60;99.90
42743;DHT22;28397;44.552;-0.848;2023-05-10T00:37:32;14.70;99.90
42743;DHT22;28397;44.552;-0.848;2023-05-10T00:39:57;14.70;99.90
42743;DHT22;28397;44.552;-0.848;2023-05-10T00:42:23;14.70;99.90
42743;DHT22;28397;44.552;-0.848;2023-05-10T00:44:49;14.60;99.90
42743;DHT22;28397;44.552;-0.848;2023-05-10T00:47:15;14.60;99.90
42743;DHT22;28397;44.552;-0.848;2023-05-10T00:49:42;14.60;99.90
42743;DHT22;28397;44.552;-0.848;2023-05-10T00:52:09;14.60;99.90
42743;DHT22;28397;44.552;-0.848;2023-05-10T00:54:35;14.60;99.90
42743;DHT22;28397;44.552;-0.848;2023-05-10T00:57:00;14.60;99.90
42743;DHT22;28397;44.552;-0.848;2023-05-10T00:59:26;14.60;99.90
42743;DHT22;28397;44.552;-0.848;2023-05-10T01:01:53;14.60;99.90
42743;DHT22;28397;44.552;-0.848;2023-05-10T01:04:19;14.60;99.90
42743;DHT22;28397;44.552;-0.848;2023-05-10T01:06:51;14.60;99.90
42743;DHT22;28397;44.552;-0.848;2023-05-10T01:09:17;14.60;99.90
42743;DHT22;28397;44.552;-0.848;2023-05-10T01:11:43;14.60;99.90
42743;DHT22;28397;44.552;-0.848;2023-05-10T01:14:10;14.50;99.90
42743;DHT22;28397;44.552;-0.848;2023-05-10T01:16:40;14.60;99.90
42743;DHT22;28397;44.552;-0.848;2023-05-10T01:19:16;14.60;99.90
42743;DHT22;28397;44.552;-0.848;2023-05-10T01:24:56;14.50;99.90
42743;DHT22;28397;44.552;-0.848;2023-05-10T01:27:47;14.50;99.90
42743;DHT22;28397;44.552;-0.848;2023-05-10T01:36:13;14.40;99.90
42743;DHT22;28397;44.552;-0.848;2023-05-10T01:38:53;14.40;99.90
42743;DHT22;28397;44.552;-0.848;2023-05-10T01:41:36;14.40;99.90
42743;DHT22;28397;44.552;-0.848;2023-05-10T01:46:37;14.50;99.90
42743;DHT22;28397;44.552;-0.848;2023-05-10T01:49:25;14.50;99.90
42743;DHT22;28397;44.552;-0.848;2023-05-10T01:51:54;14.50;99.90
42743;DHT22;28397;44.552;-0.848;2023-05-10T01:54:24;14.40;99.90
42743;DHT22;28397;44.552;-0.848;2023-05-10T01:56:57;14.40;99.90
42743;DHT22;28397;44.552;-0.848;2023-05-10T01:59:28;14.30;99.90
42743;DHT22;28397;44.552;-0.848;2023-05-10T02:01:58;14.30;99.90
42743;DHT22;28397;44.552;-0.848;2023-05-10T02:04:25;14.30;99.90
42743;DHT22;28397;44.552;-0.848;2023-05-10T02:06:53;14.20;99.90
42743;DHT22;28397;44.552;-0.848;2023-05-10T02:09:20;14.20;99.90
42743;DHT22;28397;44.552;-0.848;2023-05-10T02:11:48;14.20;99.90
42743;DHT22;28397;44.552;-0.848;2023-05-10T02:14:15;14.20;99.90
42743;DHT22;28397;44.552;-0.848;2023-05-10T02:16:43;14.20;99.90
42743;DHT22;28397;44.552;-0.848;2023-05-10T02:19:10;14.20;99.90
42743;DHT22;28397;44.552;-0.848;2023-05-10T02:21:38;14.20;99.90
42743;DHT22;28397;44.552;-0.848;2023-05-10T02:24:05;14.20;99.90
42743;DHT22;28397;44.552;-0.848;2023-05-10T02:26:33;14.20;99.90
42743;DHT22;28397;44.552;-0.848;2023-05-10T02:29:01;14.10;99.90
42743;DHT22;28397;44.552;-0.848;2023-05-10T02:31:30;14.10;99.90
42743;DHT22;28397;44.552;-0.848;2023-05-10T02:33:57;14.20;99.90
42743;DHT22;28397;44.552;-0.848;2023-05-10T02:36:25;14.10;99.90
42743;DHT22;28397;44.552;-0.848;2023-05-10T02:38:53;14.20;99.90
42743;DHT22;28397;44.552;-0.848;2023-05-10T02:41:20;14.10;99.90
42743;DHT22;28397;44.552;-0.848;2023-05-10T02:43:50;14.10;99.90
42743;DHT22;28397;44.552;-0.848;2023-05-10T02:46:17;14.10;99.90
42743;DHT22;28397;44.552;-0.848;2023-05-10T02:48:44;14.10;99.90
42743;DHT22;28397;44.552;-0.848;2023-05-10T02:51:12;14.00;99.90
42743;DHT22;28397;44.552;-0.848;2023-05-10T02:53:41;14.00;99.90
42743;DHT22;28397;44.552;-0.848;2023-05-10T02:56:15;13.90;99.90
42743;DHT22;28397;44.552;-0.848;2023-05-10T02:58:42;13.80;99.90
42743;DHT22;28397;44.552;-0.848;2023-05-10T03:01:08;13.80;99.90
42743;DHT22;28397;44.552;-0.848;2023-05-10T03:03:34;13.80;99.90
42743;DHT22;28397;44.552;-0.848;2023-05-10T03:06:00;13.90;99.90
42743;DHT22;28397;44.552;-0.848;2023-05-10T03:08:26;14.00;99.90
42743;DHT22;28397;44.552;-0.848;2023-05-10T03:13:44;14.00;99.90
42743;DHT22;28397;44.552;-0.848;2023-05-10T03:16:16;13.90;99.90
42743;DHT22;28397;44.552;-0.848;2023-05-10T03:18:54;13.90;99.90
42743;DHT22;28397;44.552;-0.848;2023-05-10T03:21:22;13.90;99.90
42743;DHT22;28397;44.552;-0.848;2023-05-10T03:24:05;13.90;99.90
42743;DHT22;28397;44.552;-0.848;2023-05-10T03:26:33;13.90;99.90
42743;DHT22;28397;44.552;-0.848;2023-05-10T03:28:59;13.80;99.90
42743;DHT22;28397;44.552;-0.848;2023-05-10T03:31:26;13.80;99.90
42743;DHT22;28397;44.552;-0.848;2023-05-10T03:33:52;13.80;99.90
42743;DHT22;28397;44.552;-0.848;2023-05-10T03:36:18;13.70;99.90
42743;DHT22;28397;44.552;-0.848;2023-05-10T03:38:44;13.80;99.90
42743;DHT22;28397;44.552;-0.848;2023-05-10T03:41:10;13.80;99.90
42743;DHT22;28397;44.552;-0.848;2023-05-10T03:43:36;13.80;99.90
42743;DHT22;28397;44.552;-0.848;2023-05-10T03:46:05;13.70;99.90
42743;DHT22;28397;44.552;-0.848;2023-05-10T03:48:32;13.80;99.90
42743;DHT22;28397;44.552;-0.848;2023-05-10T03:50:58;13.70;99.90
42743;DHT22;28397;44.552;-0.848;2023-05-10T03:53:24;13.70;99.90
42743;DHT22;28397;44.552;-0.848;2023-05-10T03:55:49;13.70;99.90
42743;DHT22;28397;44.552;-0.848;2023-05-10T03:58:15;13.70;99.90
42743;DHT22;28397;44.552;-0.848;2023-05-10T04:00:41;13.70;99.90
42743;DHT22;28397;44.552;-0.848;2023-05-10T04:03:13;13.60;99.90
42743;DHT22;28397;44.552;-0.848;2023-05-10T04:05:39;13.60;99.90
42743;DHT22;28397;44.552;-0.848;2023-05-10T04:08:05;13.70;99.90
42743;DHT22;28397;44.552;-0.848;2023-05-10T04:10:30;13.70;99.90
42743;DHT22;28397;44.552;-0.848;2023-05-10T04:12:56;13.60;99.90
42743;DHT22;28397;44.552;-0.848;2023-05-10T04:15:22;13.60;99.90
42743;DHT22;28397;44.552;-0.848;2023-05-10T04:17:49;13.50;99.90
42743;DHT22;28397;44.552;-0.848;2023-05-10T04:20:14;13.50;99.90
42743;DHT22;28397;44.552;-0.848;2023-05-10T04:22:40;13.40;99.90
42743;DHT22;28397;44.552;-0.848;2023-05-10T04:25:06;13.40;99.90
42743;DHT22;28397;44.552;-0.848;2023-05-10T04:27:32;13.40;99.90
42743;DHT22;28397;44.552;-0.848;2023-05-10T04:29:58;13.30;99.90
42743;DHT22;28397;44.552;-0.848;2023-05-10T04:32:24;13.30;99.90
42743;DHT22;28397;44.552;-0.848;2023-05-10T04:34:50;13.40;99.90
42743;DHT22;28397;44.552;-0.848;2023-05-10T04:37:16;13.30;99.90
42743;DHT22;28397;44.552;-0.848;2023-05-10T04:39:42;13.20;99.90
42743;DHT22;28397;44.552;-0.848;2023-05-10T04:42:08;13.20;99.90
42743;DHT22;28397;44.552;-0.848;2023-05-10T04:44:34;13.20;99.90
42743;DHT22;28397;44.552;-0.848;2023-05-10T04:47:00;13.20;99.90
42743;DHT22;28397;44.552;-0.848;2023-05-10T04:49:27;13.10;99.90
42743;DHT22;28397;44.552;-0.848;2023-05-10T04:51:53;13.10;99.90
42743;DHT22;28397;44.552;-0.848;2023-05-10T04:54:19;13.10;99.90
42743;DHT22;28397;44.552;-0.848;2023-05-10T04:56:45;13.10;99.90
42743;DHT22;28397;44.552;-0.848;2023-05-10T04:59:10;13.10;99.90
42743;DHT22;28397;44.552;-0.848;2023-05-10T05:01:36;13.10;99.90
42743;DHT22;28397;44.552;-0.848;2023-05-10T05:04:02;13.20;99.90
42743;DHT22;28397;44.552;-0.848;2023-05-10T05:06:27;13.20;99.90
42743;DHT22;28397;44.552;-0.848;2023-05-10T05:08:53;13.20;99.90
42743;DHT22;28397;44.552;-0.848;2023-05-10T05:11:19;13.30;99.90
42743;DHT22;28397;44.552;-0.848;2023-05-10T05:13:44;13.40;99.90
42743;DHT22;28397;44.552;-0.848;2023-05-10T05:16:11;13.40;99.90
42743;DHT22;28397;44.552;-0.848;2023-05-10T05:18:36;13.30;99.90
42743;DHT22;28397;44.552;-0.848;2023-05-10T05:21:02;13.20;99.90
42743;DHT22;28397;44.552;-0.848;2023-05-10T05:23:28;13.20;99.90
42743;DHT22;28397;44.552;-0.848;2023-05-10T05:25:54;13.20;99.90
42743;DHT22;28397;44.552;-0.848;2023-05-10T05:28:22;13.20;99.90
42743;DHT22;28397;44.552;-0.848;2023-05-10T05:30:48;13.20;99.90
42743;DHT22;28397;44.552;-0.848;2023-05-10T05:33:14;13.20;99.90
42743;DHT22;28397;44.552;-0.848;2023-05-10T05:35:41;13.30;99.90
42743;DHT22;28397;44.552;-0.848;2023-05-10T05:38:08;13.30;99.90
42743;DHT22;28397;44.552;-0.848;2023-05-10T05:40:34;13.40;99.90
42743;DHT22;28397;44.552;-0.848;2023-05-10T05:42:59;13.30;99.90
42743;DHT22;28397;44.552;-0.848;2023-05-10T05:45:25;13.40;99.90
42743;DHT22;28397;44.552;-0.848;2023-05-10T05:47:51;13.40;99.90
42743;DHT22;28397;44.552;-0.848;2023-05-10T05:50:16;13.40;99.90
42743;DHT22;28397;44.552;-0.848;2023-05-10T05:52:42;13.40;99.90
42743;DHT22;28397;44.552;-0.848;2023-05-10T05:55:08;13.40;99.90
42743;DHT22;28397;44.552;-0.848;2023-05-10T05:57:34;13.40;99.90
42743;DHT22;28397;44.552;-0.848;2023-05-10T05:59:59;13.40;99.90
42743;DHT22;28397;44.552;-0.848;2023-05-10T06:02:25;13.30;99.90
42743;DHT22;28397;44.552;-0.848;2023-05-10T06:04:51;13.20;99.90
42743;DHT22;28397;44.552;-0.848;2023-05-10T06:07:16;13.20;99.90
42743;DHT22;28397;44.552;-0.848;2023-05-10T06:09:42;13.30;99.90
42743;DHT22;28397;44.552;-0.848;2023-05-10T06:12:08;13.20;99.90
42743;DHT22;28397;44.552;-0.848;2023-05-10T06:14:33;13.20;99.90
42743;DHT22;28397;44.552;-0.848;2023-05-10T06:16:59;13.20;99.90
42743;DHT22;28397;44.552;-0.848;2023-05-10T06:19:25;13.30;99.90
42743;DHT22;28397;44.552;-0.848;2023-05-10T06:21:51;13.40;99.90
42743;DHT22;28397;44.552;-0.848;2023-05-10T06:24:17;13.50;99.90
42743;DHT22;28397;44.552;-0.848;2023-05-10T06:26:43;13.50;99.90
42743;DHT22;28397;44.552;-0.848;2023-05-10T06:29:08;13.60;99.90
42743;DHT22;28397;44.552;-0.848;2023-05-10T06:31:34;13.60;99.90
42743;DHT22;28397;44.552;-0.848;2023-05-10T06:34:00;13.60;99.90
42743;DHT22;28397;44.552;-0.848;2023-05-10T06:36:25;13.70;99.90
42743;DHT22;28397;44.552;-0.848;2023-05-10T06:38:52;13.70;99.90
42743;DHT22;28397;44.552;-0.848;2023-05-10T06:41:18;13.80;99.90
42743;DHT22;28397;44.552;-0.848;2023-05-10T06:43:44;13.80;99.90
42743;DHT22;28397;44.552;-0.848;2023-05-10T06:46:10;13.80;99.90
42743;DHT22;28397;44.552;-0.848;2023-05-10T06:48:35;13.80;99.90
42743;DHT22;28397;44.552;-0.848;2023-05-10T06:51:01;13.80;99.90
42743;DHT22;28397;44.552;-0.848;2023-05-10T06:53:27;13.80;99.90
42743;DHT22;28397;44.552;-0.848;2023-05-10T06:55:52;13.90;99.90
42743;DHT22;28397;44.552;-0.848;2023-05-10T06:58:18;13.90;99.90
42743;DHT22;28397;44.552;-0.848;2023-05-10T07:00:44;14.00;99.90
42743;DHT22;28397;44.552;-0.848;2023-05-10T07:03:10;14.10;99.90
42743;DHT22;28397;44.552;-0.848;2023-05-10T07:05:36;14.20;99.90
42743;DHT22;28397;44.552;-0.848;2023-05-10T07:08:02;14.20;99.90
42743;DHT22;28397;44.552;-0.848;2023-05-10T07:10:27;14.10;99.90
42743;DHT22;28397;44.552;-0.848;2023-05-10T07:12:53;14.20;99.90
42743;DHT22;28397;44.552;-0.848;2023-05-10T07:15:19;14.10;99.90
42743;DHT22;28397;44.552;-0.848;2023-05-10T07:17:45;14.20;99.90
42743;DHT22;28397;44.552;-0.848;2023-05-10T07:20:11;14.20;99.90
42743;DHT22;28397;44.552;-0.848;2023-05-10T07:22:37;14.30;99.90
42743;DHT22;28397;44.552;-0.848;2023-05-10T07:25:02;14.40;99.90
42743;DHT22;28397;44.552;-0.848;2023-05-10T07:27:28;14.50;99.90
42743;DHT22;28397;44.552;-0.848;2023-05-10T07:29:54;14.60;99.90
42743;DHT22;28397;44.552;-0.848;2023-05-10T07:32:20;14.70;99.90
42743;DHT22;28397;44.552;-0.848;2023-05-10T07:34:46;14.80;99.90
42743;DHT22;28397;44.552;-0.848;2023-05-10T07:37:12;14.70;99.90
42743;DHT22;28397;44.552;-0.848;2023-05-10T07:39:37;14.70;99.90
42743;DHT22;28397;44.552;-0.848;2023-05-10T07:42:03;14.60;99.90
42743;DHT22;28397;44.552;-0.848;2023-05-10T07:44:29;14.70;99.90
42743;DHT22;28397;44.552;-0.848;2023-05-10T07:46:54;14.60;99.90
42743;DHT22;28397;44.552;-0.848;2023-05-10T07:49:21;14.60;99.90
42743;DHT22;28397;44.552;-0.848;2023-05-10T07:51:46;14.60;99.90
42743;DHT22;28397;44.552;-0.848;2023-05-10T07:54:13;14.60;99.90
42743;DHT22;28397;44.552;-0.848;2023-05-10T07:56:39;14.60;99.90
42743;DHT22;28397;44.552;-0.848;2023-05-10T07:59:07;14.80;99.90
42743;DHT22;28397;44.552;-0.848;2023-05-10T08:01:34;14.90;99.90
42743;DHT22;28397;44.552;-0.848;2023-05-10T08:04:00;15.00;99.90
42743;DHT22;28397;44.552;-0.848;2023-05-10T08:06:27;15.00;99.90
42743;DHT22;28397;44.552;-0.848;2023-05-10T08:08:53;15.10;99.90
42743;DHT22;28397;44.552;-0.848;2023-05-10T08:11:20;15.20;99.90
42743;DHT22;28397;44.552;-0.848;2023-05-10T08:13:46;15.20;99.90
42743;DHT22;28397;44.552;-0.848;2023-05-10T08:16:12;15.20;99.90
42743;DHT22;28397;44.552;-0.848;2023-05-10T08:18:38;15.30;99.90
42743;DHT22;28397;44.552;-0.848;2023-05-10T08:21:05;15.40;99.90
42743;DHT22;28397;44.552;-0.848;2023-05-10T08:23:31;15.50;99.90
42743;DHT22;28397;44.552;-0.848;2023-05-10T08:25:56;15.50;99.90
42743;DHT22;28397;44.552;-0.848;2023-05-10T08:28:22;15.60;99.90
42743;DHT22;28397;44.552;-0.848;2023-05-10T08:30:49;15.70;99.90
42743;DHT22;28397;44.552;-0.848;2023-05-10T08:33:14;15.90;99.90
42743;DHT22;28397;44.552;-0.848;2023-05-10T08:35:41;15.80;99.90
42743;DHT22;28397;44.552;-0.848;2023-05-10T08:38:06;15.60;99.90
42743;DHT22;28397;44.552;-0.848;2023-05-10T08:40:32;15.40;99.90
42743;DHT22;28397;44.552;-0.848;2023-05-10T08:43:11;15.30;99.90
42743;DHT22;28397;44.552;-0.848;2023-05-10T08:45:41;15.20;99.90
42743;DHT22;28397;44.552;-0.848;2023-05-10T08:48:08;15.20;99.90
42743;DHT22;28397;44.552;-0.848;2023-05-10T08:50:39;15.20;99.90
42743;DHT22;28397;44.552;-0.848;2023-05-10T08:53:15;15.30;99.90
42743;DHT22;28397;44.552;-0.848;2023-05-10T08:55:42;15.40;99.90
42743;DHT22;28397;44.552;-0.848;2023-05-10T08:58:09;15.60;99.90
42743;DHT22;28397;44.552;-0.848;2023-05-10T09:00:35;15.70;99.90
42743;DHT22;28397;44.552;-0.848;2023-05-10T09:03:02;15.70;99.90
42743;DHT22;28397;44.552;-0.848;2023-05-10T09:05:28;15.80;99.90
42743;DHT22;28397;44.552;-0.848;2023-05-10T09:07:54;15.80;99.90
42743;DHT22;28397;44.552;-0.848;2023-05-10T09:10:20;15.80;99.90
42743;DHT22;28397;44.552;-0.848;2023-05-10T09:12:48;15.90;99.90
42743;DHT22;28397;44.552;-0.848;2023-05-10T09:15:15;16.00;99.90
42743;DHT22;28397;44.552;-0.848;2023-05-10T09:17:42;16.10;99.90
42743;DHT22;28397;44.552;-0.848;2023-05-10T09:20:09;16.10;99.90
42743;DHT22;28397;44.552;-0.848;2023-05-10T09:22:35;16.20;99.90
42743;DHT22;28397;44.552;-0.848;2023-05-10T09:25:19;16.20;99.90
42743;DHT22;28397;44.552;-0.848;2023-05-10T09:27:46;16.20;99.90
42743;DHT22;28397;44.552;-0.848;2023-05-10T09:30:29;16.20;99.90
42743;DHT22;28397;44.552;-0.848;2023-05-10T09:32:56;16.30;99.90
42743;DHT22;28397;44.552;-0.848;2023-05-10T09:35:26;16.30;99.90
42743;DHT22;28397;44.552;-0.848;2023-05-10T09:37:54;16.40;99.90
42743;DHT22;28397;44.552;-0.848;2023-05-10T09:40:22;16.40;99.90
42743;DHT22;28397;44.552;-0.848;2023-05-10T09:45:24;16.50;99.90
42743;DHT22;28397;44.552;-0.848;2023-05-10T09:47:50;16.60;99.90
42743;DHT22;28397;44.552;-0.848;2023-05-10T09:50:16;16.50;99.90
42743;DHT22;28397;44.552;-0.848;2023-05-10T09:52:52;16.60;99.90
42743;DHT22;28397;44.552;-0.848;2023-05-10T09:55:23;16.70;99.90
42743;DHT22;28397;44.552;-0.848;2023-05-10T09:57:59;16.80;99.90
42743;DHT22;28397;44.552;-0.848;2023-05-10T10:00:26;16.50;99.90
42743;DHT22;28397;44.552;-0.848;2023-05-10T10:02:57;16.40;99.90
42743;DHT22;28397;44.552;-0.848;2023-05-10T10:05:33;16.40;99.90
42743;DHT22;28397;44.552;-0.848;2023-05-10T10:08:01;16.30;99.90
42743;DHT22;28397;44.552;-0.848;2023-05-10T10:10:28;16.30;99.90
42743;DHT22;28397;44.552;-0.848;2023-05-10T10:12:55;16.40;99.90
42743;DHT22;28397;44.552;-0.848;2023-05-10T10:15:22;16.60;99.90
42743;DHT22;28397;44.552;-0.848;2023-05-10T10:17:49;16.60;99.90
42743;DHT22;28397;44.552;-0.848;2023-05-10T10:20:16;16.70;99.90
42743;DHT22;28397;44.552;-0.848;2023-05-10T10:22:42;16.60;99.90
42743;DHT22;28397;44.552;-0.848;2023-05-10T10:25:10;16.50;99.90
42743;DHT22;28397;44.552;-0.848;2023-05-10T10:35:45;16.30;99.90
42743;DHT22;28397;44.552;-0.848;2023-05-10T10:38:13;16.20;99.90
42743;DHT22;28397;44.552;-0.848;2023-05-10T10:40:39;16.10;99.90
42743;DHT22;28397;44.552;-0.848;2023-05-10T10:43:28;16.10;99.90
42743;DHT22;28397;44.552;-0.848;2023-05-10T10:46:12;16.10;99.90
42743;DHT22;28397;44.552;-0.848;2023-05-10T10:48:49;16.30;99.90
42743;DHT22;28397;44.552;-0.848;2023-05-10T10:51:16;16.40;99.90
42743;DHT22;28397;44.552;-0.848;2023-05-10T10:53:43;16.60;99.90
42743;DHT22;28397;44.552;-0.848;2023-05-10T10:56:11;16.60;99.90
42743;DHT22;28397;44.552;-0.848;2023-05-10T10:58:39;16.70;99.90
42743;DHT22;28397;44.552;-0.848;2023-05-10T11:01:17;16.70;99.90
42743;DHT22;28397;44.552;-0.848;2023-05-10T11:06:41;16.60;99.90
42743;DHT22;28397;44.552;-0.848;2023-05-10T11:09:12;16.60;99.90
42743;DHT22;28397;44.552;-0.848;2023-05-10T11:11:54;16.60;99.90
42743;DHT22;28397;44.552;-0.848;2023-05-10T11:14:23;16.70;99.90
42743;DHT22;28397;44.552;-0.848;2023-05-10T11:16:50;16.60;99.90
42743;DHT22;28397;44.552;-0.848;2023-05-10T11:19:17;16.70;99.90
42743;DHT22;28397;44.552;-0.848;2023-05-10T11:24:31;16.90;99.90
42743;DHT22;28397;44.552;-0.848;2023-05-10T11:26:57;17.00;99.90
42743;DHT22;28397;44.552;-0.848;2023-05-10T11:29:23;17.00;99.90
42743;DHT22;28397;44.552;-0.848;2023-05-10T11:31:51;17.00;99.90
42743;DHT22;28397;44.552;-0.848;2023-05-10T11:34:30;17.00;99.90
42743;DHT22;28397;44.552;-0.848;2023-05-10T11:36:59;17.20;99.90
42743;DHT22;28397;44.552;-0.848;2023-05-10T11:39:29;17.30;99.90
42743;DHT22;28397;44.552;-0.848;2023-05-10T11:41:55;17.30;99.90
42743;DHT22;28397;44.552;-0.848;2023-05-10T11:44:21;17.30;99.90
42743;DHT22;28397;44.552;-0.848;2023-05-10T11:46:48;17.40;99.90
42743;DHT22;28397;44.552;-0.848;2023-05-10T11:49:14;17.40;99.90
42743;DHT22;28397;44.552;-0.848;2023-05-10T11:51:40;17.50;99.90
42743;DHT22;28397;44.552;-0.848;2023-05-10T11:54:11;17.30;99.90
42743;DHT22;28397;44.552;-0.848;2023-05-10T11:56:38;17.20;99.90
42743;DHT22;28397;44.552;-0.848;2023-05-10T11:59:04;17.30;99.90
42743;DHT22;28397;44.552;-0.848;2023-05-10T12:01:30;17.50;99.90
42743;DHT22;28397;44.552;-0.848;2023-05-10T12:03:57;17.40;99.90
42743;DHT22;28397;44.552;-0.848;2023-05-10T12:06:27;17.10;99.90
42743;DHT22;28397;44.552;-0.848;2023-05-10T12:08:54;16.90;99.90
42743;DHT22;28397;44.552;-0.848;2023-05-10T12:11:24;16.90;99.90
42743;DHT22;28397;44.552;-0.848;2023-05-10T12:13:50;16.90;99.90
42743;DHT22;28397;44.552;-0.848;2023-05-10T12:16:18;16.80;99.90
42743;DHT22;28397;44.552;-0.848;2023-05-10T12:18:45;16.90;99.90
42743;DHT22;28397;44.552;-0.848;2023-05-10T12:21:11;17.20;99.90
42743;DHT22;28397;44.552;-0.848;2023-05-10T12:23:40;17.50;99.90
42743;DHT22;28397;44.552;-0.848;2023-05-10T12:26:08;17.60;99.90
42743;DHT22;28397;44.552;-0.848;2023-05-10T12:28:34;17.80;99.90
42743;DHT22;28397;44.552;-0.848;2023-05-10T12:31:02;17.80;99.90
42743;DHT22;28397;44.552;-0.848;2023-05-10T12:33:44;17.90;99.90
42743;DHT22;28397;44.552;-0.848;2023-05-10T12:36:14;18.10;99.90
42743;DHT22;28397;44.552;-0.848;2023-05-10T12:38:42;18.00;99.90
42743;DHT22;28397;44.552;-0.848;2023-05-10T12:41:15;17.90;99.90
42743;DHT22;28397;44.552;-0.848;2023-05-10T12:43:41;18.00;99.90
42743;DHT22;28397;44.552;-0.848;2023-05-10T12:46:10;18.20;99.90
42743;DHT22;28397;44.552;-0.848;2023-05-10T12:48:37;18.10;99.90
42743;DHT22;28397;44.552;-0.848;2023-05-10T12:51:04;17.80;99.90
42743;DHT22;28397;44.552;-0.848;2023-05-10T12:53:30;17.80;99.90
42743;DHT22;28397;44.552;-0.848;2023-05-10T12:55:55;18.00;99.90
42743;DHT22;28397;44.552;-0.848;2023-05-10T12:58:21;18.10;99.90
42743;DHT22;28397;44.552;-0.848;2023-05-10T13:00:47;18.20;99.90
42743;DHT22;28397;44.552;-0.848;2023-05-10T13:03:13;18.30;99.90
42743;DHT22;28397;44.552;-0.848;2023-05-10T13:05:40;18.60;99.90
42743;DHT22;28397;44.552;-0.848;2023-05-10T13:08:05;18.80;99.90
42743;DHT22;28397;44.552;-0.848;2023-05-10T13:10:31;18.30;99.90
42743;DHT22;28397;44.552;-0.848;2023-05-10T13:12:58;18.00;99.90
42743;DHT22;28397;44.552;-0.848;2023-05-10T13:15:24;18.40;99.90
42743;DHT22;28397;44.552;-0.848;2023-05-10T13:17:49;18.30;99.90
42743;DHT22;28397;44.552;-0.848;2023-05-10T13:20:15;18.60;99.90
42743;DHT22;28397;44.552;-0.848;2023-05-10T13:22:42;18.90;99.90
42743;DHT22;28397;44.552;-0.848;2023-05-10T13:25:08;18.70;99.90
42743;DHT22;28397;44.552;-0.848;2023-05-10T13:27:34;18.40;99.90
42743;DHT22;28397;44.552;-0.848;2023-05-10T13:30:00;18.30;99.90
42743;DHT22;28397;44.552;-0.848;2023-05-10T13:32:26;18.40;99.90
42743;DHT22;28397;44.552;-0.848;2023-05-10T13:34:52;18.60;99.90
42743;DHT22;28397;44.552;-0.848;2023-05-10T13:37:18;18.80;99.90
42743;DHT22;28397;44.552;-0.848;2023-05-10T13:39:43;18.90;99.90
42743;DHT22;28397;44.552;-0.848;2023-05-10T13:42:09;19.00;99.90
42743;DHT22;28397;44.552;-0.848;2023-05-10T13:44:35;19.30;99.90
42743;DHT22;28397;44.552;-0.848;2023-05-10T13:47:01;19.20;99.90
42743;DHT22;28397;44.552;-0.848;2023-05-10T13:49:27;19.40;99.90
42743;DHT22;28397;44.552;-0.848;2023-05-10T13:51:52;19.60;99.90
42743;DHT22;28397;44.552;-0.848;2023-05-10T13:54:18;20.00;99.90
42743;DHT22;28397;44.552;-0.848;2023-05-10T13:56:45;19.70;99.90
42743;DHT22;28397;44.552;-0.848;2023-05-10T13:59:13;19.40;99.90
42743;DHT22;28397;44.552;-0.848;2023-05-10T14:01:40;19.70;99.90
42743;DHT22;28397;44.552;-0.848;2023-05-10T14:04:05;20.00;99.90
42743;DHT22;28397;44.552;-0.848;2023-05-10T14:06:32;20.00;99.90
42743;DHT22;28397;44.552;-0.848;2023-05-10T14:08:58;19.90;99.90
42743;DHT22;28397;44.552;-0.848;2023-05-10T14:11:24;19.50;99.90
42743;DHT22;28397;44.552;-0.848;2023-05-10T14:13:50;19.40;99.90
42743;DHT22;28397;44.552;-0.848;2023-05-10T14:16:15;19.10;99.90
42743;DHT22;28397;44.552;-0.848;2023-05-10T14:18:41;19.10;99.90
42743;DHT22;28397;44.552;-0.848;2023-05-10T14:21:07;19.30;99.90
42743;DHT22;28397;44.552;-0.848;2023-05-10T14:23:32;19.30;99.90
42743;DHT22;28397;44.552;-0.848;2023-05-10T14:25:58;19.80;99.90
42743;DHT22;28397;44.552;-0.848;2023-05-10T14:28:24;20.10;99.90
42743;DHT22;28397;44.552;-0.848;2023-05-10T14:30:50;20.60;99.90
42743;DHT22;28397;44.552;-0.848;2023-05-10T14:33:16;20.70;99.90
42743;DHT22;28397;44.552;-0.848;2023-05-10T14:35:42;20.80;99.90
42743;DHT22;28397;44.552;-0.848;2023-05-10T14:38:08;20.50;99.90
42743;DHT22;28397;44.552;-0.848;2023-05-10T14:40:34;20.30;99.90
42743;DHT22;28397;44.552;-0.848;2023-05-10T14:43:00;20.10;99.90
42743;DHT22;28397;44.552;-0.848;2023-05-10T14:45:26;19.90;99.90
42743;DHT22;28397;44.552;-0.848;2023-05-10T14:47:51;19.90;99.90
42743;DHT22;28397;44.552;-0.848;2023-05-10T14:50:17;19.70;99.90
42743;DHT22;28397;44.552;-0.848;2023-05-10T14:52:43;19.40;99.90
42743;DHT22;28397;44.552;-0.848;2023-05-10T14:55:10;19.30;99.90
42743;DHT22;28397;44.552;-0.848;2023-05-10T14:57:36;19.00;99.90
42743;DHT22;28397;44.552;-0.848;2023-05-10T15:00:02;18.90;99.90
42743;DHT22;28397;44.552;-0.848;2023-05-10T15:02:30;19.00;99.90
42743;DHT22;28397;44.552;-0.848;2023-05-10T15:04:55;19.00;99.90
42743;DHT22;28397;44.552;-0.848;2023-05-10T15:07:22;19.00;99.90
42743;DHT22;28397;44.552;-0.848;2023-05-10T15:09:49;19.00;99.90
42743;DHT22;28397;44.552;-0.848;2023-05-10T15:12:15;18.80;99.90
42743;DHT22;28397;44.552;-0.848;2023-05-10T15:14:41;18.80;99.90
42743;DHT22;28397;44.552;-0.848;2023-05-10T15:17:07;18.80;99.90
42743;DHT22;28397;44.552;-0.848;2023-05-10T15:19:33;18.70;99.90
42743;DHT22;28397;44.552;-0.848;2023-05-10T15:21:59;18.80;99.90
42743;DHT22;28397;44.552;-0.848;2023-05-10T15:24:25;18.80;99.90
42743;DHT22;28397;44.552;-0.848;2023-05-10T15:26:50;18.80;99.90
42743;DHT22;28397;44.552;-0.848;2023-05-10T15:29:16;18.80;99.90
42743;DHT22;28397;44.552;-0.848;2023-05-10T15:31:48;19.00;99.90
42743;DHT22;28397;44.552;-0.848;2023-05-10T15:34:14;19.00;99.90
42743;DHT22;28397;44.552;-0.848;2023-05-10T15:36:40;19.00;99.90
42743;DHT22;28397;44.552;-0.848;2023-05-10T15:39:06;18.90;99.90
42743;DHT22;28397;44.552;-0.848;2023-05-10T15:41:32;19.00;99.90
42743;DHT22;28397;44.552;-0.848;2023-05-10T15:43:58;19.00;99.90
42743;DHT22;28397;44.552;-0.848;2023-05-10T15:46:27;19.60;99.90